Terminal Aerodrome Forecast
Issued by NWS Blacksburg, VA

Home | Current Version | Previous Version | Text Only | Print | Product List | Glossary On
Versions: 1 2 3 4 5 6 7 8 9 10 11 12 13 14 15 16 17 18 19 20 21 22 23 24 25 26 27 28 29 30 31 32 33 34 35
000
FTUS41 KRNK 250539
TAFDAN
TAF
KDAN 250539Z 2506/2606 02003KT P6SM OVC009
      TEMPO 2509/2512 4SM BR OVC004
     FM251400 05007KT P6SM BKN025
     FM251600 06006KT P6SM BKN040=

USA.gov is the U.S. government's official web portal to all federal, state and local government web resources and services.